sensor_id;sensor_type;location;lat;lon;timestamp;pressure;altitude;pressure_sealevel;temperature;humidity
49999;BME280;68071;45.062;7.356;2023-04-26T00:02:41;94855.69;;;7.28;40.04
49999;BME280;68071;45.062;7.356;2023-04-26T00:05:45;94859.63;;;7.45;43.47
49999;BME280;68071;45.062;7.356;2023-04-26T00:08:50;94851.00;;;7.18;45.82
49999;BME280;68071;45.062;7.356;2023-04-26T00:11:54;94853.34;;;7.37;43.73
49999;BME280;68071;45.062;7.356;2023-04-26T00:14:58;94847.47;;;7.24;38.83
49999;BME280;68071;45.062;7.356;2023-04-26T00:18:02;94846.66;;;7.24;39.29
49999;BME280;68071;45.062;7.356;2023-04-26T00:21:06;94842.72;;;7.54;38.40
49999;BME280;68071;45.062;7.356;2023-04-26T00:24:10;94857.63;;;7.56;37.45
49999;BME280;68071;45.062;7.356;2023-04-26T00:27:15;94856.91;;;7.09;40.03
49999;BME280;68071;45.062;7.356;2023-04-26T00:30:19;94870.84;;;6.24;44.59
49999;BME280;68071;45.062;7.356;2023-04-26T00:33:23;94865.63;;;5.97;50.61
49999;BME280;68071;45.062;7.356;2023-04-26T00:36:27;94866.94;;;6.22;46.12
49999;BME280;68071;45.062;7.356;2023-04-26T00:39:31;94861.13;;;6.63;43.47
49999;BME280;68071;45.062;7.356;2023-04-26T00:42:39;94855.28;;;6.61;43.53
49999;BME280;68071;45.062;7.356;2023-04-26T00:45:43;94856.44;;;6.63;45.75
49999;BME280;68071;45.062;7.356;2023-04-26T00:48:48;94864.63;;;6.38;48.25
49999;BME280;68071;45.062;7.356;2023-04-26T00:51:52;94855.72;;;6.88;42.00
49999;BME280;68071;45.062;7.356;2023-04-26T00:54:57;94861.16;;;6.74;43.27
49999;BME280;68071;45.062;7.356;2023-04-26T00:58:01;94860.72;;;6.43;44.27
49999;BME280;68071;45.062;7.356;2023-04-26T01:01:05;94861.16;;;6.66;47.48
49999;BME280;68071;45.062;7.356;2023-04-26T01:04:11;94861.09;;;6.30;45.77
49999;BME280;68071;45.062;7.356;2023-04-26T01:07:16;94853.72;;;6.71;43.39
49999;BME280;68071;45.062;7.356;2023-04-26T01:10:20;94859.66;;;7.09;41.18
49999;BME280;68071;45.062;7.356;2023-04-26T01:13:24;94846.28;;;7.18;41.69
49999;BME280;68071;45.062;7.356;2023-04-26T01:16:29;94859.25;;;6.96;46.11
49999;BME280;68071;45.062;7.356;2023-04-26T01:19:33;94852.00;;;6.19;48.22
49999;BME280;68071;45.062;7.356;2023-04-26T01:22:40;94851.34;;;6.55;43.99
49999;BME280;68071;45.062;7.356;2023-04-26T01:25:44;94852.16;;;5.67;49.76
49999;BME280;68071;45.062;7.356;2023-04-26T01:28:48;94850.38;;;6.03;47.52
49999;BME280;68071;45.062;7.356;2023-04-26T01:31:53;94846.56;;;5.52;48.63
49999;BME280;68071;45.062;7.356;2023-04-26T01:34:58;94847.47;;;6.77;42.50
49999;BME280;68071;45.062;7.356;2023-04-26T01:38:03;94850.56;;;6.61;43.20
49999;BME280;68071;45.062;7.356;2023-04-26T01:41:07;94848.19;;;6.53;44.18
49999;BME280;68071;45.062;7.356;2023-04-26T01:44:11;94856.44;;;6.63;45.03
49999;BME280;68071;45.062;7.356;2023-04-26T01:47:15;94843.91;;;6.70;48.22
49999;BME280;68071;45.062;7.356;2023-04-26T01:50:19;94841.09;;;6.41;45.69
49999;BME280;68071;45.062;7.356;2023-04-26T01:53:23;94842.69;;;6.42;46.19
49999;BME280;68071;45.062;7.356;2023-04-26T01:56:27;94847.84;;;6.90;43.90
49999;BME280;68071;45.062;7.356;2023-04-26T01:59:32;94850.59;;;7.01;42.64
49999;BME280;68071;45.062;7.356;2023-04-26T02:02:35;94854.13;;;7.02;43.09
49999;BME280;68071;45.062;7.356;2023-04-26T02:05:40;94849.81;;;6.86;44.30
49999;BME280;68071;45.062;7.356;2023-04-26T02:08:44;94854.84;;;6.48;45.21
49999;BME280;68071;45.062;7.356;2023-04-26T02:11:48;94859.19;;;6.60;45.68
49999;BME280;68071;45.062;7.356;2023-04-26T02:14:53;94855.28;;;6.61;46.05
49999;BME280;68071;45.062;7.356;2023-04-26T02:17:57;94862.75;;;6.82;44.24
49999;BME280;68071;45.062;7.356;2023-04-26T02:21:01;94860.34;;;6.55;45.73
49999;BME280;68071;45.062;7.356;2023-04-26T02:24:05;94856.47;;;6.74;45.25
49999;BME280;68071;45.062;7.356;2023-04-26T02:27:09;94859.59;;;6.65;48.91
49999;BME280;68071;45.062;7.356;2023-04-26T02:30:13;94861.28;;;5.85;49.08
49999;BME280;68071;45.062;7.356;2023-04-26T02:33:17;94853.25;;;6.32;46.12
49999;BME280;68071;45.062;7.356;2023-04-26T02:36:21;94855.94;;;6.18;49.29
49999;BME280;68071;45.062;7.356;2023-04-26T02:39:25;94861.13;;;6.48;49.82
49999;BME280;68071;45.062;7.356;2023-04-26T02:42:32;94860.91;;;5.94;51.50
49999;BME280;68071;45.062;7.356;2023-04-26T02:45:43;94868.63;;;5.70;51.95
49999;BME280;68071;45.062;7.356;2023-04-26T02:48:49;94868.88;;;6.14;46.62
49999;BME280;68071;45.062;7.356;2023-04-26T02:51:54;94870.84;;;5.50;50.32
49999;BME280;68071;45.062;7.356;2023-04-26T02:54:59;94863.38;;;6.17;46.27
49999;BME280;68071;45.062;7.356;2023-04-26T02:58:06;94864.78;;;5.82;47.10
49999;BME280;68071;45.062;7.356;2023-04-26T03:01:10;94862.66;;;5.54;50.81
49999;BME280;68071;45.062;7.356;2023-04-26T03:04:16;94864.50;;;6.05;47.02
49999;BME280;68071;45.062;7.356;2023-04-26T03:07:21;94876.66;;;6.01;47.31
49999;BME280;68071;45.062;7.356;2023-04-26T03:10:25;94870.50;;;5.59;50.39
49999;BME280;68071;45.062;7.356;2023-04-26T03:13:29;94870.28;;;5.89;47.79
49999;BME280;68071;45.062;7.356;2023-04-26T03:16:40;94869.59;;;6.07;47.59
49999;BME280;68071;45.062;7.356;2023-04-26T03:19:45;94863.25;;;5.92;47.57
49999;BME280;68071;45.062;7.356;2023-04-26T03:22:50;94866.00;;;5.99;47.64
49999;BME280;68071;45.062;7.356;2023-04-26T03:25:55;94869.53;;;5.96;50.54
49999;BME280;68071;45.062;7.356;2023-04-26T03:28:59;94869.38;;;5.67;50.45
49999;BME280;68071;45.062;7.356;2023-04-26T03:32:04;94871.09;;;5.94;49.17
49999;BME280;68071;45.062;7.356;2023-04-26T03:35:10;94858.63;;;6.03;48.31
49999;BME280;68071;45.062;7.356;2023-04-26T03:38:14;94859.44;;;5.37;51.10
49999;BME280;68071;45.062;7.356;2023-04-26T03:41:18;94857.97;;;5.58;51.28
49999;BME280;68071;45.062;7.356;2023-04-26T03:44:22;94857.72;;;5.85;51.21
49999;BME280;68071;45.062;7.356;2023-04-26T03:47:26;94861.28;;;5.85;52.30
49999;BME280;68071;45.062;7.356;2023-04-26T03:50:30;94859.50;;;5.52;54.00
49999;BME280;68071;45.062;7.356;2023-04-26T03:53:34;94862.00;;;5.79;53.25
49999;BME280;68071;45.062;7.356;2023-04-26T03:56:40;94865.19;;;5.91;53.07
49999;BME280;68071;45.062;7.356;2023-04-26T03:59:45;94867.97;;;5.95;54.59
49999;BME280;68071;45.062;7.356;2023-04-26T04:02:48;94885.84;;;5.67;54.62
49999;BME280;68071;45.062;7.356;2023-04-26T04:06:00;94885.97;;;5.93;55.25
49999;BME280;68071;45.062;7.356;2023-04-26T04:09:04;94892.75;;;5.47;56.05
49999;BME280;68071;45.062;7.356;2023-04-26T04:12:09;94883.97;;;5.82;54.31
49999;BME280;68071;45.062;7.356;2023-04-26T04:15:15;94884.53;;;5.50;58.02
49999;BME280;68071;45.062;7.356;2023-04-26T04:18:23;94888.44;;;6.05;55.48
49999;BME280;68071;45.062;7.356;2023-04-26T04:21:27;94891.28;;;6.38;54.46
49999;BME280;68071;45.062;7.356;2023-04-26T04:24:33;94897.06;;;6.14;55.86
49999;BME280;68071;45.062;7.356;2023-04-26T04:27:38;94899.94;;;5.66;59.72
49999;BME280;68071;45.062;7.356;2023-04-26T04:30:42;94896.41;;;5.69;59.86
49999;BME280;68071;45.062;7.356;2023-04-26T04:33:47;94908.41;;;6.02;58.52
49999;BME280;68071;45.062;7.356;2023-04-26T04:36:52;94903.34;;;6.15;57.54
49999;BME280;68071;45.062;7.356;2023-04-26T04:39:58;94900.19;;;6.05;58.79
49999;BME280;68071;45.062;7.356;2023-04-26T04:43:03;94907.00;;;5.70;61.27
49999;BME280;68071;45.062;7.356;2023-04-26T04:46:09;94916.50;;;5.84;61.20
49999;BME280;68071;45.062;7.356;2023-04-26T04:49:15;94914.41;;;6.29;58.25
49999;BME280;68071;45.062;7.356;2023-04-26T04:52:19;94909.72;;;6.33;58.96
49999;BME280;68071;45.062;7.356;2023-04-26T04:55:26;94920.84;;;5.92;62.17
49999;BME280;68071;45.062;7.356;2023-04-26T04:58:30;94915.88;;;6.12;60.15
49999;BME280;68071;45.062;7.356;2023-04-26T05:01:35;94923.03;;;6.31;59.32
49999;BME280;68071;45.062;7.356;2023-04-26T05:04:46;94910.84;;;6.25;61.43
49999;BME280;68071;45.062;7.356;2023-04-26T05:07:51;94917.19;;;6.40;58.78
49999;BME280;68071;45.062;7.356;2023-04-26T05:10:55;94923.91;;;6.54;59.04
49999;BME280;68071;45.062;7.356;2023-04-26T05:14:00;94924.69;;;6.61;58.73
49999;BME280;68071;45.062;7.356;2023-04-26T05:17:05;94923.13;;;6.64;61.42
49999;BME280;68071;45.062;7.356;2023-04-26T05:20:10;94923.56;;;6.73;60.49
49999;BME280;68071;45.062;7.356;2023-04-26T05:23:14;94934.94;;;6.82;66.16
49999;BME280;68071;45.062;7.356;2023-04-26T05:26:19;94943.63;;;7.06;59.93
49999;BME280;68071;45.062;7.356;2023-04-26T05:29:30;94942.88;;;7.24;59.74
49999;BME280;68071;45.062;7.356;2023-04-26T05:32:41;94942.88;;;7.78;57.58
49999;BME280;68071;45.062;7.356;2023-04-26T05:35:54;94937.31;;;7.96;58.29
49999;BME280;68071;45.062;7.356;2023-04-26T05:38:58;94943.63;;;7.97;60.64
49999;BME280;68071;45.062;7.356;2023-04-26T05:42:02;94945.97;;;8.06;61.07
49999;BME280;68071;45.062;7.356;2023-04-26T05:45:08;94946.00;;;8.02;63.43
49999;BME280;68071;45.062;7.356;2023-04-26T05:48:13;94949.09;;;8.11;63.54
49999;BME280;68071;45.062;7.356;2023-04-26T05:51:17;94947.88;;;8.30;67.22
49999;BME280;68071;45.062;7.356;2023-04-26T05:54:21;94948.22;;;8.47;63.85
49999;BME280;68071;45.062;7.356;2023-04-26T05:57:25;94949.31;;;8.71;61.98
49999;BME280;68071;45.062;7.356;2023-04-26T06:00:30;94958.59;;;8.99;60.39
49999;BME280;68071;45.062;7.356;2023-04-26T06:03:35;94960.19;;;9.00;57.06
49999;BME280;68071;45.062;7.356;2023-04-26T06:06:40;94964.03;;;9.17;53.83
49999;BME280;68071;45.062;7.356;2023-04-26T06:09:45;94958.84;;;9.30;52.07
49999;BME280;68071;45.062;7.356;2023-04-26T06:12:48;94948.47;;;9.49;47.22
49999;BME280;68071;45.062;7.356;2023-04-26T06:15:54;94954.19;;;9.69;46.54
49999;BME280;68071;45.062;7.356;2023-04-26T06:18:59;94958.06;;;9.79;46.79
49999;BME280;68071;45.062;7.356;2023-04-26T06:22:06;94956.69;;;10.02;46.50
49999;BME280;68071;45.062;7.356;2023-04-26T06:25:11;94962.19;;;10.02;46.19
49999;BME280;68071;45.062;7.356;2023-04-26T06:28:16;94958.25;;;10.03;45.71
49999;BME280;68071;45.062;7.356;2023-04-26T06:31:23;94958.38;;;10.30;45.78
49999;BME280;68071;45.062;7.356;2023-04-26T06:34:27;94965.69;;;10.48;46.65
49999;BME280;68071;45.062;7.356;2023-04-26T06:37:34;94963.81;;;10.76;45.57
49999;BME280;68071;45.062;7.356;2023-04-26T06:40:38;94960.25;;;10.75;42.89
49999;BME280;68071;45.062;7.356;2023-04-26T06:43:42;94955.03;;;10.81;42.80
49999;BME280;68071;45.062;7.356;2023-04-26T06:46:57;94959.91;;;11.04;44.53
49999;BME280;68071;45.062;7.356;2023-04-26T06:50:03;94963.75;;;11.38;44.03
49999;BME280;68071;45.062;7.356;2023-04-26T06:53:08;94966.13;;;11.39;44.93
49999;BME280;68071;45.062;7.356;2023-04-26T06:56:12;94960.38;;;11.77;42.79
49999;BME280;68071;45.062;7.356;2023-04-26T06:59:16;94963.88;;;11.82;41.97
49999;BME280;68071;45.062;7.356;2023-04-26T07:02:20;94961.53;;;12.28;43.48
49999;BME280;68071;45.062;7.356;2023-04-26T07:05:26;94963.97;;;12.02;43.75
49999;BME280;68071;45.062;7.356;2023-04-26T07:08:30;94964.69;;;12.06;41.57
49999;BME280;68071;45.062;7.356;2023-04-26T07:11:34;94956.56;;;12.19;40.33
49999;BME280;68071;45.062;7.356;2023-04-26T07:14:38;94966.09;;;12.38;38.45
49999;BME280;68071;45.062;7.356;2023-04-26T07:17:44;94967.59;;;12.43;37.48
49999;BME280;68071;45.062;7.356;2023-04-26T07:20:48;94959.13;;;12.70;38.23
49999;BME280;68071;45.062;7.356;2023-04-26T07:23:55;94954.59;;;12.80;39.66
49999;BME280;68071;45.062;7.356;2023-04-26T07:26:59;94961.22;;;12.86;38.23
49999;BME280;68071;45.062;7.356;2023-04-26T07:30:05;94963.34;;;12.78;40.59
49999;BME280;68071;45.062;7.356;2023-04-26T07:33:09;94959.91;;;12.91;40.91
49999;BME280;68071;45.062;7.356;2023-04-26T07:36:13;94965.06;;;12.92;41.22
49999;BME280;68071;45.062;7.356;2023-04-26T07:39:17;94957.81;;;13.15;38.74
49999;BME280;68071;45.062;7.356;2023-04-26T07:42:21;94966.25;;;12.91;39.84
49999;BME280;68071;45.062;7.356;2023-04-26T07:45:25;94970.38;;;13.03;39.68
49999;BME280;68071;45.062;7.356;2023-04-26T07:48:29;94961.44;;;12.95;38.37
49999;BME280;68071;45.062;7.356;2023-04-26T07:51:34;94954.78;;;13.09;38.83
49999;BME280;68071;45.062;7.356;2023-04-26T07:54:38;94953.50;;;13.14;37.59
49999;BME280;68071;45.062;7.356;2023-04-26T07:57:42;94962.81;;;13.24;37.32
49999;BME280;68071;45.062;7.356;2023-04-26T08:00:46;94962.50;;;13.18;37.36
49999;BME280;68071;45.062;7.356;2023-04-26T08:03:50;94954.78;;;13.46;37.73
49999;BME280;68071;45.062;7.356;2023-04-26T08:06:54;94955.25;;;13.24;38.61
49999;BME280;68071;45.062;7.356;2023-04-26T08:09:59;94958.91;;;13.74;39.35
49999;BME280;68071;45.062;7.356;2023-04-26T08:13:04;94962.63;;;13.51;37.82
49999;BME280;68071;45.062;7.356;2023-04-26T08:16:08;94965.75;;;13.33;37.97
49999;BME280;68071;45.062;7.356;2023-04-26T08:19:12;94965.31;;;13.55;38.27
49999;BME280;68071;45.062;7.356;2023-04-26T08:22:16;94971.63;;;13.72;38.12
49999;BME280;68071;45.062;7.356;2023-04-26T08:25:20;94970.59;;;13.99;37.32
49999;BME280;68071;45.062;7.356;2023-04-26T08:28:24;94967.22;;;13.74;37.24
49999;BME280;68071;45.062;7.356;2023-04-26T08:31:28;94969.56;;;13.76;38.32
49999;BME280;68071;45.062;7.356;2023-04-26T08:34:33;94962.28;;;13.99;39.12
49999;BME280;68071;45.062;7.356;2023-04-26T08:37:40;94968.94;;;14.34;37.47
49999;BME280;68071;45.062;7.356;2023-04-26T08:40:45;94967.53;;;14.26;38.09
49999;BME280;68071;45.062;7.356;2023-04-26T08:43:50;94966.84;;;14.68;36.81
49999;BME280;68071;45.062;7.356;2023-04-26T08:50:01;94982.19;;;14.89;35.70
49999;BME280;68071;45.062;7.356;2023-04-26T08:53:08;94979.09;;;13.91;35.27
49999;BME280;68071;45.062;7.356;2023-04-26T08:56:12;94974.50;;;13.85;36.48
49999;BME280;68071;45.062;7.356;2023-04-26T08:59:17;94975.63;;;14.20;38.62
49999;BME280;68071;45.062;7.356;2023-04-26T09:02:22;94980.50;;;14.62;40.45
49999;BME280;68071;45.062;7.356;2023-04-26T09:05:26;94983.81;;;14.74;41.03
49999;BME280;68071;45.062;7.356;2023-04-26T09:08:31;94976.25;;;15.30;42.95
49999;BME280;68071;45.062;7.356;2023-04-26T09:11:59;94983.84;;;15.68;40.12
49999;BME280;68071;45.062;7.356;2023-04-26T09:15:06;94979.94;;;15.39;38.15
49999;BME280;68071;45.062;7.356;2023-04-26T09:18:18;94971.59;;;15.65;38.09
49999;BME280;68071;45.062;7.356;2023-04-26T09:21:22;94975.63;;;15.90;34.11
49999;BME280;68071;45.062;7.356;2023-04-26T09:24:28;94980.41;;;15.64;34.08
49999;BME280;68071;45.062;7.356;2023-04-26T09:27:49;94971.47;;;16.08;33.80
49999;BME280;68071;45.062;7.356;2023-04-26T09:30:53;94974.69;;;15.80;33.90
49999;BME280;68071;45.062;7.356;2023-04-26T09:33:58;94973.03;;;15.83;32.64
49999;BME280;68071;45.062;7.356;2023-04-26T09:37:03;94974.06;;;15.89;34.17
49999;BME280;68071;45.062;7.356;2023-04-26T09:40:17;94980.19;;;16.45;35.74
49999;BME280;68071;45.062;7.356;2023-04-26T09:43:22;94974.59;;;16.45;34.16
49999;BME280;68071;45.062;7.356;2023-04-26T09:46:26;94973.28;;;16.37;34.18
49999;BME280;68071;45.062;7.356;2023-04-26T09:49:46;94977.38;;;16.10;36.26
49999;BME280;68071;45.062;7.356;2023-04-26T09:52:51;94972.59;;;16.45;35.81
49999;BME280;68071;45.062;7.356;2023-04-26T09:55:56;94964.25;;;16.68;33.88
49999;BME280;68071;45.062;7.356;2023-04-26T09:59:01;94963.22;;;16.04;32.04
49999;BME280;68071;45.062;7.356;2023-04-26T10:02:14;94971.03;;;15.57;37.49
49999;BME280;68071;45.062;7.356;2023-04-26T10:05:18;94966.63;;;16.21;35.30
49999;BME280;68071;45.062;7.356;2023-04-26T10:08:23;94970.31;;;16.18;31.54
49999;BME280;68071;45.062;7.356;2023-04-26T10:11:28;94955.56;;;15.95;31.16
49999;BME280;68071;45.062;7.356;2023-04-26T10:14:33;94962.03;;;16.40;34.61
49999;BME280;68071;45.062;7.356;2023-04-26T10:17:38;94956.38;;;16.18;34.94
49999;BME280;68071;45.062;7.356;2023-04-26T10:20:45;94955.56;;;16.30;31.98
49999;BME280;68071;45.062;7.356;2023-04-26T10:23:51;94953.34;;;16.60;34.82
49999;BME280;68071;45.062;7.356;2023-04-26T10:26:55;94942.81;;;16.07;32.79
49999;BME280;68071;45.062;7.356;2023-04-26T10:30:05;94950.91;;;17.07;32.41
49999;BME280;68071;45.062;7.356;2023-04-26T10:33:10;94950.56;;;16.83;32.12
49999;BME280;68071;45.062;7.356;2023-04-26T10:36:16;94943.25;;;16.41;33.83
49999;BME280;68071;45.062;7.356;2023-04-26T10:39:21;94946.53;;;16.84;32.07
49999;BME280;68071;45.062;7.356;2023-04-26T10:42:28;94946.09;;;16.28;32.63
49999;BME280;68071;45.062;7.356;2023-04-26T10:45:36;94948.81;;;16.76;34.88
49999;BME280;68071;45.062;7.356;2023-04-26T10:48:40;94933.09;;;17.14;32.81
49999;BME280;68071;45.062;7.356;2023-04-26T10:52:20;94931.28;;;16.18;35.00
49999;BME280;68071;45.062;7.356;2023-04-26T10:55:41;94932.25;;;16.59;37.32
49999;BME280;68071;45.062;7.356;2023-04-26T10:59:06;94926.94;;;16.74;33.08
49999;BME280;68071;45.062;7.356;2023-04-26T11:02:11;94922.72;;;16.70;33.37
49999;BME280;68071;45.062;7.356;2023-04-26T11:08:40;94917.34;;;16.98;33.26
49999;BME280;68071;45.062;7.356;2023-04-26T11:11:51;94919.22;;;17.01;33.02
49999;BME280;68071;45.062;7.356;2023-04-26T11:14:58;94911.53;;;17.14;34.42
49999;BME280;68071;45.062;7.356;2023-04-26T11:18:04;94914.88;;;17.31;33.34
49999;BME280;68071;45.062;7.356;2023-04-26T11:21:09;94916.03;;;16.45;35.74
49999;BME280;68071;45.062;7.356;2023-04-26T11:24:14;94897.59;;;16.92;33.40
49999;BME280;68071;45.062;7.356;2023-04-26T11:27:18;94904.69;;;16.61;35.06
49999;BME280;68071;45.062;7.356;2023-04-26T11:30:23;94903.19;;;16.12;35.69
49999;BME280;68071;45.062;7.356;2023-04-26T11:33:27;94901.28;;;16.22;36.48
49999;BME280;68071;45.062;7.356;2023-04-26T11:36:31;94891.34;;;16.21;35.21
49999;BME280;68071;45.062;7.356;2023-04-26T11:39:35;94888.06;;;16.80;35.11
49999;BME280;68071;45.062;7.356;2023-04-26T11:42:39;94874.19;;;17.62;34.79
49999;BME280;68071;45.062;7.356;2023-04-26T11:45:45;94878.31;;;17.48;33.25
49999;BME280;68071;45.062;7.356;2023-04-26T11:48:49;94880.59;;;16.99;33.98
49999;BME280;68071;45.062;7.356;2023-04-26T11:51:54;94879.50;;;16.97;35.92
49999;BME280;68071;45.062;7.356;2023-04-26T11:55:06;94873.22;;;17.56;35.13
49999;BME280;68071;45.062;7.356;2023-04-26T11:58:13;94865.41;;;17.41;34.62
49999;BME280;68071;45.062;7.356;2023-04-26T12:01:22;94873.34;;;16.79;33.98
49999;BME280;68071;45.062;7.356;2023-04-26T12:04:27;94858.66;;;16.88;35.64
49999;BME280;68071;45.062;7.356;2023-04-26T12:07:35;94856.56;;;17.33;34.50
49999;BME280;68071;45.062;7.356;2023-04-26T12:10:47;94857.47;;;17.30;33.92
49999;BME280;68071;45.062;7.356;2023-04-26T12:13:51;94853.94;;;18.26;33.83
49999;BME280;68071;45.062;7.356;2023-04-26T12:16:58;94846.66;;;17.51;33.15
49999;BME280;68071;45.062;7.356;2023-04-26T12:20:10;94860.41;;;17.27;33.68
49999;BME280;68071;45.062;7.356;2023-04-26T12:23:15;94856.03;;;16.94;33.89
49999;BME280;68071;45.062;7.356;2023-04-26T12:26:20;94839.78;;;18.11;33.89
49999;BME280;68071;45.062;7.356;2023-04-26T12:29:25;94843.06;;;18.10;36.33
49999;BME280;68071;45.062;7.356;2023-04-26T12:32:30;94845.06;;;18.28;34.58
49999;BME280;68071;45.062;7.356;2023-04-26T12:35:34;94843.47;;;18.73;30.41
49999;BME280;68071;45.062;7.356;2023-04-26T12:38:39;94847.66;;;17.85;33.20
49999;BME280;68071;45.062;7.356;2023-04-26T12:41:44;94847.09;;;16.99;32.87
49999;BME280;68071;45.062;7.356;2023-04-26T12:44:49;94838.00;;;17.08;33.19
49999;BME280;68071;45.062;7.356;2023-04-26T12:47:53;94840.00;;;17.58;32.77
49999;BME280;68071;45.062;7.356;2023-04-26T12:50:58;94838.16;;;16.82;32.76
49999;BME280;68071;45.062;7.356;2023-04-26T12:54:01;94832.25;;;16.80;32.44
49999;BME280;68071;45.062;7.356;2023-04-26T12:57:06;94832.19;;;17.34;33.70
49999;BME280;68071;45.062;7.356;2023-04-26T13:00:12;94838.72;;;17.40;34.19
49999;BME280;68071;45.062;7.356;2023-04-26T13:03:17;94835.94;;;17.49;32.90
49999;BME280;68071;45.062;7.356;2023-04-26T13:06:21;94835.94;;;17.40;34.03
49999;BME280;68071;45.062;7.356;2023-04-26T13:09:25;94833.78;;;17.53;32.18
49999;BME280;68071;45.062;7.356;2023-04-26T13:12:30;94828.31;;;18.00;36.26
49999;BME280;68071;45.062;7.356;2023-04-26T13:15:34;94836.69;;;18.00;32.25
49999;BME280;68071;45.062;7.356;2023-04-26T13:18:39;94824.66;;;17.81;32.21
49999;BME280;68071;45.062;7.356;2023-04-26T13:21:44;94833.41;;;17.92;31.97
49999;BME280;68071;45.062;7.356;2023-04-26T13:24:48;94829.38;;;18.40;31.05
49999;BME280;68071;45.062;7.356;2023-04-26T13:27:52;94834.94;;;17.93;33.36
49999;BME280;68071;45.062;7.356;2023-04-26T13:30:57;94832.81;;;18.07;33.25
49999;BME280;68071;45.062;7.356;2023-04-26T13:34:02;94825.00;;;18.39;30.65
49999;BME280;68071;45.062;7.356;2023-04-26T13:37:07;94817.38;;;18.58;29.45
49999;BME280;68071;45.062;7.356;2023-04-26T13:40:12;94820.66;;;18.38;32.07
49999;BME280;68071;45.062;7.356;2023-04-26T13:43:17;94813.94;;;18.72;29.39
49999;BME280;68071;45.062;7.356;2023-04-26T13:46:21;94806.09;;;18.15;31.73
49999;BME280;68071;45.062;7.356;2023-04-26T13:49:25;94798.72;;;18.45;32.16
49999;BME280;68071;45.062;7.356;2023-04-26T13:52:30;94794.22;;;18.57;31.84
49999;BME280;68071;45.062;7.356;2023-04-26T13:55:34;94789.22;;;18.71;30.82
49999;BME280;68071;45.062;7.356;2023-04-26T13:58:41;94791.16;;;18.89;30.10
49999;BME280;68071;45.062;7.356;2023-04-26T14:01:44;94787.03;;;18.66;31.91
49999;BME280;68071;45.062;7.356;2023-04-26T14:04:49;94795.72;;;18.77;32.72
49999;BME280;68071;45.062;7.356;2023-04-26T14:07:54;94795.44;;;18.66;30.73
49999;BME280;68071;45.062;7.356;2023-04-26T14:10:58;94791.53;;;18.63;31.08
49999;BME280;68071;45.062;7.356;2023-04-26T14:14:03;94793.59;;;19.15;29.75
49999;BME280;68071;45.062;7.356;2023-04-26T14:17:07;94793.44;;;19.43;29.10
49999;BME280;68071;45.062;7.356;2023-04-26T14:20:12;94792.25;;;19.01;30.63
49999;BME280;68071;45.062;7.356;2023-04-26T14:23:16;94794.44;;;18.87;33.62
49999;BME280;68071;45.062;7.356;2023-04-26T14:26:20;94787.84;;;19.43;29.47
49999;BME280;68071;45.062;7.356;2023-04-26T14:29:24;94782.19;;;19.52;29.21
49999;BME280;68071;45.062;7.356;2023-04-26T14:32:27;94774.53;;;18.85;31.47
49999;BME280;68071;45.062;7.356;2023-04-26T14:35:31;94783.13;;;18.72;31.88
49999;BME280;68071;45.062;7.356;2023-04-26T14:38:35;94784.63;;;18.83;31.27
49999;BME280;68071;45.062;7.356;2023-04-26T14:41:41;94790.19;;;19.11;30.79
49999;BME280;68071;45.062;7.356;2023-04-26T14:44:45;94780.78;;;19.23;31.94
49999;BME280;68071;45.062;7.356;2023-04-26T14:47:50;94771.28;;;19.54;29.85
49999;BME280;68071;45.062;7.356;2023-04-26T14:50:57;94780.31;;;19.73;29.75
49999;BME280;68071;45.062;7.356;2023-04-26T14:54:05;94775.50;;;19.74;31.45
49999;BME280;68071;45.062;7.356;2023-04-26T14:57:09;94767.19;;;20.04;30.98
49999;BME280;68071;45.062;7.356;2023-04-26T15:00:13;94764.53;;;20.69;29.74
49999;BME280;68071;45.062;7.356;2023-04-26T15:03:20;94762.50;;;21.00;29.50
49999;BME280;68071;45.062;7.356;2023-04-26T15:06:25;94766.19;;;20.61;28.33
49999;BME280;68071;45.062;7.356;2023-04-26T15:09:30;94773.94;;;20.51;29.65
49999;BME280;68071;45.062;7.356;2023-04-26T15:12:34;94764.84;;;21.58;28.80
49999;BME280;68071;45.062;7.356;2023-04-26T15:15:38;94767.31;;;21.14;30.57
49999;BME280;68071;45.062;7.356;2023-04-26T15:18:42;94762.03;;;21.37;26.68
49999;BME280;68071;45.062;7.356;2023-04-26T15:21:47;94766.13;;;21.21;27.01
49999;BME280;68071;45.062;7.356;2023-04-26T15:24:52;94762.44;;;21.66;25.99
49999;BME280;68071;45.062;7.356;2023-04-26T15:27:56;94771.16;;;20.81;29.62
49999;BME280;68071;45.062;7.356;2023-04-26T15:31:03;94771.63;;;20.80;27.18
49999;BME280;68071;45.062;7.356;2023-04-26T15:34:08;94776.91;;;21.23;27.10
49999;BME280;68071;45.062;7.356;2023-04-26T15:37:12;94784.09;;;21.44;26.05
49999;BME280;68071;45.062;7.356;2023-04-26T15:40:16;94773.06;;;21.05;28.97
49999;BME280;68071;45.062;7.356;2023-04-26T15:43:20;94772.94;;;21.50;27.71
49999;BME280;68071;45.062;7.356;2023-04-26T15:46:25;94774.25;;;21.34;26.68
49999;BME280;68071;45.062;7.356;2023-04-26T15:49:30;94779.72;;;20.48;27.46
49999;BME280;68071;45.062;7.356;2023-04-26T15:52:34;94778.38;;;20.73;29.07
49999;BME280;68071;45.062;7.356;2023-04-26T15:55:39;94770.66;;;21.69;26.54
49999;BME280;68071;45.062;7.356;2023-04-26T15:58:45;94768.47;;;21.79;27.55
49999;BME280;68071;45.062;7.356;2023-04-26T16:01:49;94772.34;;;22.02;25.16
49999;BME280;68071;45.062;7.356;2023-04-26T16:04:53;94773.00;;;21.91;25.23
49999;BME280;68071;45.062;7.356;2023-04-26T16:07:57;94777.66;;;21.23;27.62
49999;BME280;68071;45.062;7.356;2023-04-26T16:11:02;94783.63;;;19.72;31.67
49999;BME280;68071;45.062;7.356;2023-04-26T16:14:07;94775.13;;;19.32;29.95
49999;BME280;68071;45.062;7.356;2023-04-26T16:17:11;94790.06;;;19.63;29.45
49999;BME280;68071;45.062;7.356;2023-04-26T16:20:15;94790.97;;;20.63;27.92
49999;BME280;68071;45.062;7.356;2023-04-26T16:23:19;94793.22;;;20.89;27.59
49999;BME280;68071;45.062;7.356;2023-04-26T16:26:24;94791.28;;;20.95;29.04
49999;BME280;68071;45.062;7.356;2023-04-26T16:29:30;94775.28;;;22.14;25.21
49999;BME280;68071;45.062;7.356;2023-04-26T16:32:35;94776.16;;;21.79;25.30
49999;BME280;68071;45.062;7.356;2023-04-26T16:35:39;94776.16;;;21.99;26.51